Destinations Hamburg Airport

Hamburg Airport (EDDH / HAM)

Flights to Hamburg Airport

Flight number From ETE Dispatch
SPY-110 EHGG Groningen Airport Eelde 01:00

Flights from Hamburg Airport

Flight number To ETE Dispatch
SPY-111 EHGG Groningen Airport Eelde 01:05
About

Hamburg Airport facts

Hamburg Airport is located in Hamburg at an elevation of 16.2 meters or 53 feet.

Currently, Speedy Airlines serves 2 flights to and from Hamburg Airport.

Detailed airport info

Route map

Weather

Current weather

METAR

METAR

Metar data retrieved Sunday, 21 July 2024 at 20:25 UTC

EDDH 211950Z AUTO 30004KT 7000 NSC 20/20 Q1008 NOSIG
Wind Temperature
4 kt 20c